Time,TemperatureF,DewpointF,PressureIn,WindDirection,WindDirectionDegrees,WindSpeedMPH,WindSpeedGustMPH,Humidity,HourlyPrecipIn,Conditions,Clouds,dailyrainin,SoftwareType,DateUTC
2013-06-23 00:05:00,69.1,57.7,30.11,SW,224,1.0,1.0,67,0.00,,,0.00,Wunderground v.1.15,2013-06-23 04:05:00,
2013-06-23 00:10:00,69.0,57.6,30.11,SW,217,1.0,1.0,67,0.00,,,0.00,Wunderground v.1.15,2013-06-23 04:10:00,
2013-06-23 00:15:00,68.9,57.5,30.11,SW,236,1.0,1.0,67,0.00,,,0.00,Wunderground v.1.15,2013-06-23 04:15:00,
2013-06-23 00:25:00,68.8,57.8,30.11,WNW,292,0.0,1.0,68,0.00,,,0.00,Wunderground v.1.15,2013-06-23 04:25:00,
2013-06-23 00:30:00,68.7,57.7,30.12,West,280,1.0,1.0,68,0.00,,,0.00,Wunderground v.1.15,2013-06-23 04:30:00,
2013-06-23 00:35:00,68.6,57.6,30.12,WNW,303,1.0,2.0,68,0.00,,,0.00,Wunderground v.1.15,2013-06-23 04:35:00,
2013-06-23 00:45:00,68.5,57.9,30.12,NW,312,1.0,1.0,69,0.00,,,0.00,Wunderground v.1.15,2013-06-23 04:45:00,
2013-06-23 00:50:00,68.5,57.9,30.12,West,265,1.0,1.0,69,0.00,,,0.00,Wunderground v.1.15,2013-06-23 04:50:00,
2013-06-23 01:00:00,68.3,57.7,30.12,North,355,1.0,1.0,69,0.00,,,0.00,Wunderground v.1.15,2013-06-23 05:00:00,
2013-06-23 01:10:00,68.3,57.7,30.11,SW,229,1.0,1.0,69,0.00,,,0.00,Wunderground v.1.15,2013-06-23 05:10:00,
2013-06-23 01:15:00,68.2,57.6,30.11,SW,222,1.0,1.0,69,0.00,,,0.00,Wunderground v.1.15,2013-06-23 05:15:00,
2013-06-23 01:25:00,68.2,58.0,30.11,SSW,210,1.0,1.0,70,0.00,,,0.00,Wunderground v.1.15,2013-06-23 05:25:00,
2013-06-23 01:35:00,68.2,58.0,30.11,SSW,213,0.0,1.0,70,0.00,,,0.00,Wunderground v.1.15,2013-06-23 05:35:00,
2013-06-23 01:40:00,68.1,57.9,30.11,WNW,290,1.0,1.0,70,0.00,,,0.00,Wunderground v.1.15,2013-06-23 05:40:00,
2013-06-23 01:45:00,68.1,57.9,30.11,WNW,290,0.0,1.0,70,0.00,,,0.00,Wunderground v.1.15,2013-06-23 05:45:00,
2013-06-23 01:50:00,68.1,57.9,30.11,SSW,205,0.0,0.0,70,0.00,,,0.00,Wunderground v.1.15,2013-06-23 05:50:00,
2013-06-23 02:00:00,68.1,57.9,30.11,WNW,288,0.0,0.0,70,0.00,,,0.00,Wunderground v.1.15,2013-06-23 06:00:00,
2013-06-23 02:10:00,68.1,57.9,30.10,WNW,288,0.0,0.0,70,0.00,,,0.00,Wunderground v.1.15,2013-06-23 06:10:00,
2013-06-23 02:15:00,68.0,57.8,30.10,WNW,288,0.0,0.0,70,0.00,,,0.00,Wunderground v.1.15,2013-06-23 06:15:00,
2013-06-23 02:20:00,68.0,57.8,30.10,NNW,345,0.0,0.0,70,0.00,,,0.00,Wunderground v.1.15,2013-06-23 06:20:00,
2013-06-23 02:30:00,68.0,58.6,30.10,NNW,344,0.0,0.0,72,0.00,,,0.00,Wunderground v.1.15,2013-06-23 06:30:00,
2013-06-23 02:35:00,67.8,58.8,30.10,NNW,344,0.0,0.0,73,0.00,,,0.00,Wunderground v.1.15,2013-06-23 06:35:00,
2013-06-23 02:45:00,67.0,59.2,30.09,SSW,207,0.0,0.0,76,0.00,,,0.01,Wunderground v.1.15,2013-06-23 06:45:00,
2013-06-23 02:50:00,66.7,59.3,30.09,SSW,207,0.0,0.0,77,0.00,,,0.01,Wunderground v.1.15,2013-06-23 06:50:00,
2013-06-23 03:00:00,66.3,58.9,30.08,SW,220,0.0,0.0,77,0.00,,,0.01,Wunderground v.1.15,2013-06-23 07:00:00,
2013-06-23 03:05:00,66.3,59.2,30.08,SW,225,0.0,0.0,78,0.00,,,0.01,Wunderground v.1.15,2013-06-23 07:05:00,
2013-06-23 03:15:00,66.3,58.9,30.08,SW,223,0.0,0.0,77,0.00,,,0.01,Wunderground v.1.15,2013-06-23 07:15:00,
2013-06-23 03:25:00,66.3,58.9,30.08,SW,223,0.0,0.0,77,0.00,,,0.01,Wunderground v.1.15,2013-06-23 07:25:00,
2013-06-23 03:30:00,66.3,58.9,30.08,SW,224,0.0,0.0,77,0.00,,,0.01,Wunderground v.1.15,2013-06-23 07:30:00,
2013-06-23 03:40:00,66.2,58.8,30.07,SW,224,0.0,0.0,77,0.00,,,0.01,Wunderground v.1.15,2013-06-23 07:40:00,
2013-06-23 03:50:00,66.3,58.9,30.07,SW,224,0.0,0.0,77,0.00,,,0.01,Wunderground v.1.15,2013-06-23 07:50:00,
2013-06-23 03:55:00,66.3,58.9,30.07,SW,224,0.0,0.0,77,0.00,,,0.01,Wunderground v.1.15,2013-06-23 07:55:00,
2013-06-23 04:05:00,66.3,58.9,30.07,SW,224,0.0,0.0,77,0.00,,,0.01,Wunderground v.1.15,2013-06-23 08:05:00,
2013-06-23 04:15:00,66.1,58.7,30.07,SW,224,0.0,0.0,77,0.00,,,0.01,Wunderground v.1.15,2013-06-23 08:15:00,
2013-06-23 04:20:00,66.1,58.7,30.07,SW,224,0.0,0.0,77,0.00,,,0.01,Wunderground v.1.15,2013-06-23 08:20:00,
2013-06-23 04:30:00,66.0,58.6,30.07,SW,224,0.0,0.0,77,0.00,,,0.01,Wunderground v.1.15,2013-06-23 08:30:00,
2013-06-23 04:35:00,66.0,58.6,30.07,SW,224,0.0,0.0,77,0.00,,,0.01,Wunderground v.1.15,2013-06-23 08:35:00,
2013-06-23 04:45:00,66.0,58.6,30.07,SW,224,0.0,0.0,77,0.00,,,0.01,Wunderground v.1.15,2013-06-23 08:45:00,
2013-06-23 04:50:00,66.0,58.6,30.07,SW,224,0.0,0.0,77,0.00,,,0.01,Wunderground v.1.15,2013-06-23 08:50:00,
2013-06-23 04:55:00,66.0,58.6,30.07,SW,224,0.0,0.0,77,0.00,,,0.01,Wunderground v.1.15,2013-06-23 08:55:00,
2013-06-23 05:05:00,65.9,58.1,30.07,SW,235,0.0,0.0,76,0.00,,,0.01,Wunderground v.1.15,2013-06-23 09:05:00,
2013-06-23 05:15:00,65.9,58.1,30.07,SW,235,0.0,0.0,76,0.00,,,0.01,Wunderground v.1.15,2013-06-23 09:15:00,
2013-06-23 05:25:00,65.8,58.0,30.07,SW,234,0.0,0.0,76,0.00,,,0.01,Wunderground v.1.15,2013-06-23 09:25:00,
2013-06-23 05:30:00,65.8,58.0,30.07,SW,234,0.0,0.0,76,0.00,,,0.01,Wunderground v.1.15,2013-06-23 09:30:00,
2013-06-23 05:40:00,65.8,58.0,30.07,SW,236,0.0,0.0,76,0.00,,,0.01,Wunderground v.1.15,2013-06-23 09:40:00,
2013-06-23 05:50:00,65.9,58.1,30.07,SW,214,0.0,0.0,76,0.00,,,0.01,Wunderground v.1.15,2013-06-23 09:50:00,
2013-06-23 06:00:00,66.3,58.1,30.07,SW,216,0.0,0.0,75,0.00,,,0.01,Wunderground v.1.15,2013-06-23 10:00:00,
2013-06-23 06:10:00,66.8,58.2,30.07,SW,234,0.0,0.0,74,0.00,,,0.01,Wunderground v.1.15,2013-06-23 10:10:00,
2013-06-23 06:15:00,67.0,58.8,30.07,West,267,0.0,0.0,75,0.00,,,0.01,Wunderground v.1.15,2013-06-23 10:15:00,
2013-06-23 06:25:00,67.6,59.0,30.08,SSW,196,0.0,1.0,74,0.00,,,0.01,Wunderground v.1.15,2013-06-23 10:25:00,
2013-06-23 06:35:00,68.0,59.0,30.08,West,277,1.0,1.0,73,0.00,,,0.01,Wunderground v.1.15,2013-06-23 10:35:00,
2013-06-23 06:40:00,68.3,59.3,30.07,SW,222,1.0,1.0,73,0.00,,,0.01,Wunderground v.1.15,2013-06-23 10:40:00,
2013-06-23 06:50:00,68.9,59.9,30.08,SSW,208,0.0,0.0,73,0.00,,,0.01,Wunderground v.1.15,2013-06-23 10:50:00,
2013-06-23 06:55:00,69.0,60.0,30.08,South,176,1.0,1.0,73,0.00,,,0.01,Wunderground v.1.15,2013-06-23 10:55:00,
2013-06-23 07:05:00,69.4,60.0,30.08,SW,214,0.0,1.0,72,0.00,,,0.01,Wunderground v.1.15,2013-06-23 11:05:00,
2013-06-23 07:10:00,69.5,60.5,30.08,West,263,0.0,0.0,73,0.00,,,0.01,Wunderground v.1.15,2013-06-23 11:10:00,
2013-06-23 07:20:00,70.2,60.7,30.08,South,182,1.0,1.0,72,0.00,,,0.01,Wunderground v.1.15,2013-06-23 11:20:00,
2013-06-23 07:25:00,70.5,61.0,30.09,SSW,209,1.0,1.0,72,0.00,,,0.01,Wunderground v.1.15,2013-06-23 11:25:00,
2013-06-23 07:35:00,71.4,61.5,30.09,SSW,198,0.0,2.0,71,0.00,,,0.01,Wunderground v.1.15,2013-06-23 11:35:00,
2013-06-23 07:45:00,71.8,61.5,30.09,SW,232,1.0,1.0,70,0.00,,,0.01,Wunderground v.1.15,2013-06-23 11:45:00,
2013-06-23 07:50:00,71.8,61.5,30.09,West,280,1.0,2.0,70,0.00,,,0.01,Wunderground v.1.15,2013-06-23 11:50:00,
2013-06-23 08:00:00,72.0,62.9,30.09,West,267,0.0,0.0,73,0.00,,,0.01,Wunderground v.1.15,2013-06-23 12:00:00,
2013-06-23 08:05:00,72.3,62.4,30.09,SSW,210,0.0,0.0,71,0.00,,,0.01,Wunderground v.1.15,2013-06-23 12:05:00,
2013-06-23 08:15:00,73.0,63.4,30.08,NW,306,1.0,1.0,72,0.00,,,0.01,Wunderground v.1.15,2013-06-23 12:15:00,
2013-06-23 08:25:00,74.1,63.7,30.08,NE,50,1.0,2.0,70,0.00,,,0.01,Wunderground v.1.15,2013-06-23 12:25:00,
2013-06-23 08:35:00,75.3,64.0,30.08,SW,221,1.0,1.0,68,0.00,,,0.01,Wunderground v.1.15,2013-06-23 12:35:00,
2013-06-23 08:45:00,75.2,64.3,30.08,WNW,303,1.0,2.0,69,0.00,,,0.01,Wunderground v.1.15,2013-06-23 12:45:00,
2013-06-23 08:55:00,74.9,64.5,30.08,NW,306,1.0,1.0,70,0.00,,,0.01,Wunderground v.1.15,2013-06-23 12:55:00,
2013-06-23 09:00:00,75.8,65.3,30.08,SW,236,1.0,2.0,70,0.00,,,0.01,Wunderground v.1.15,2013-06-23 13:00:00,
2013-06-23 09:10:00,76.4,65.1,30.08,WSW,257,1.0,1.0,68,0.00,,,0.01,Wunderground v.1.15,2013-06-23 13:10:00,
2013-06-23 09:20:00,77.3,65.5,30.08,SSW,194,1.0,1.0,67,0.00,,,0.01,Wunderground v.1.15,2013-06-23 13:20:00,
2013-06-23 09:30:00,78.6,66.3,30.08,WNW,298,1.0,1.0,66,0.00,,,0.01,Wunderground v.1.15,2013-06-23 13:30:00,
2013-06-23 09:35:00,78.3,66.4,30.08,SSW,213,1.0,2.0,67,0.00,,,0.01,Wunderground v.1.15,2013-06-23 13:35:00,
2013-06-23 09:40:00,79.0,67.1,30.08,WNW,294,2.0,3.0,67,0.00,,,0.01,Wunderground v.1.15,2013-06-23 13:40:00,
2013-06-23 09:50:00,80.0,67.6,30.07,WNW,288,2.0,2.0,66,0.00,,,0.01,Wunderground v.1.15,2013-06-23 13:50:00,
2013-06-23 10:00:00,81.6,67.8,30.07,WNW,292,1.0,2.0,63,0.00,,,0.01,Wunderground v.1.15,2013-06-23 14:00:00,
2013-06-23 10:05:00,81.7,68.8,30.07,NW,304,1.0,2.0,65,0.00,,,0.01,Wunderground v.1.15,2013-06-23 14:05:00,
2013-06-23 10:15:00,81.7,68.3,30.06,WNW,293,1.0,2.0,64,0.00,,,0.01,Wunderground v.1.15,2013-06-23 14:15:00,
2013-06-23 10:20:00,81.5,68.1,30.06,SW,229,1.0,1.0,64,0.00,,,0.01,Wunderground v.1.15,2013-06-23 14:20:00,
2013-06-23 10:25:00,81.6,68.2,30.06,WSW,238,1.0,2.0,64,0.00,,,0.01,Wunderground v.1.15,2013-06-23 14:25:00,
2013-06-23 10:35:00,82.3,69.4,30.06,WNW,302,1.0,2.0,65,0.00,,,0.01,Wunderground v.1.15,2013-06-23 14:35:00,
2013-06-23 10:40:00,82.2,68.8,30.06,SW,230,2.0,2.0,64,0.00,,,0.01,Wunderground v.1.15,2013-06-23 14:40:00,
2013-06-23 10:50:00,82.4,68.5,30.05,WSW,255,1.0,2.0,63,0.00,,,0.01,Wunderground v.1.15,2013-06-23 14:50:00,
2013-06-23 11:00:00,82.3,68.9,30.05,West,267,1.0,3.0,64,0.00,,,0.01,Wunderground v.1.15,2013-06-23 15:00:00,
2013-06-23 11:10:00,83.8,69.4,30.05,SSW,196,1.0,1.0,62,0.00,,,0.01,Wunderground v.1.15,2013-06-23 15:10:00,
2013-06-23 11:20:00,84.2,69.8,30.05,NW,322,1.0,1.0,62,0.00,,,0.01,Wunderground v.1.15,2013-06-23 15:20:00,
2013-06-23 11:30:00,84.4,70.0,30.04,South,190,1.0,1.0,62,0.00,,,0.01,Wunderground v.1.15,2013-06-23 15:30:00,
2013-06-23 11:40:00,85.5,70.5,30.04,NW,307,2.0,2.0,61,0.00,,,0.01,Wunderground v.1.15,2013-06-23 15:40:00,
2013-06-23 11:50:00,85.9,70.4,30.04,NE,43,2.0,2.0,60,0.00,,,0.01,Wunderground v.1.15,2013-06-23 15:50:00,
2013-06-23 11:55:00,86.3,70.8,30.04,NW,312,1.0,2.0,60,0.00,,,0.01,Wunderground v.1.15,2013-06-23 15:55:00,
2013-06-23 12:05:00,86.2,70.7,30.03,NW,319,2.0,2.0,60,0.00,,,0.01,Wunderground v.1.15,2013-06-23 16:05:00,
2013-06-23 12:15:00,87.1,71.5,30.03,South,190,2.0,2.0,60,0.00,,,0.01,Wunderground v.1.15,2013-06-23 16:15:00,
2013-06-23 12:20:00,87.5,71.9,30.03,WNW,301,2.0,2.0,60,0.00,,,0.01,Wunderground v.1.15,2013-06-23 16:20:00,
2013-06-23 12:30:00,87.4,70.8,30.03,SSW,194,2.0,2.0,58,0.00,,,0.01,Wunderground v.1.15,2013-06-23 16:30:00,
2013-06-23 12:40:00,87.9,71.8,30.02,WNW,283,1.0,2.0,59,0.00,,,0.01,Wunderground v.1.15,2013-06-23 16:40:00,
2013-06-23 12:45:00,88.3,71.6,30.02,South,184,1.0,2.0,58,0.00,,,0.01,Wunderground v.1.15,2013-06-23 16:45:00,
2013-06-23 12:55:00,88.2,71.6,30.02,SW,230,2.0,3.0,58,0.00,,,0.01,Wunderground v.1.15,2013-06-23 16:55:00,
2013-06-23 13:10:00,88.3,72.2,30.01,WNW,296,2.0,2.0,59,0.00,,,0.01,Wunderground v.1.15,2013-06-23 17:10:00,
2013-06-23 13:15:00,88.3,72.7,30.01,WNW,288,2.0,2.0,60,0.00,,,0.01,Wunderground v.1.15,2013-06-23 17:15:00,
2013-06-23 13:20:00,88.6,72.4,30.01,SSW,201,2.0,2.0,59,0.00,,,0.01,Wunderground v.1.15,2013-06-23 17:20:00,
2013-06-23 13:25:00,88.8,72.6,30.00,North,5,1.0,2.0,59,0.00,,,0.01,Wunderground v.1.15,2013-06-23 17:25:00,
2013-06-23 13:30:00,88.5,71.8,30.00,West,281,2.0,2.0,58,0.00,,,0.01,Wunderground v.1.15,2013-06-23 17:30:00,
2013-06-23 13:35:00,88.7,72.0,30.00,WNW,300,2.0,2.0,58,0.00,,,0.01,Wunderground v.1.15,2013-06-23 17:35:00,
2013-06-23 13:45:00,88.9,71.7,30.00,WNW,294,2.0,2.0,57,0.00,,,0.01,Wunderground v.1.15,2013-06-23 17:45:00,
2013-06-23 13:55:00,88.9,72.2,30.00,WNW,286,2.0,3.0,58,0.00,,,0.01,Wunderground v.1.15,2013-06-23 17:55:00,
2013-06-23 14:05:00,88.6,71.9,29.99,West,263,2.0,2.0,58,0.00,,,0.01,Wunderground v.1.15,2013-06-23 18:05:00,
2013-06-23 14:15:00,88.9,72.2,29.99,SW,221,2.0,2.0,58,0.00,,,0.01,Wunderground v.1.15,2013-06-23 18:15:00,
2013-06-23 14:25:00,88.9,71.7,29.98,West,281,2.0,4.0,57,0.00,,,0.01,Wunderground v.1.15,2013-06-23 18:25:00,
2013-06-23 14:30:00,88.9,72.2,29.98,WNW,297,2.0,2.0,58,0.00,,,0.01,Wunderground v.1.15,2013-06-23 18:30:00,
2013-06-23 14:35:00,88.8,72.1,29.98,WSW,247,3.0,3.0,58,0.00,,,0.01,Wunderground v.1.15,2013-06-23 18:35:00,
2013-06-23 14:45:00,88.4,72.2,29.97,SW,221,3.0,5.0,59,0.00,,,0.01,Wunderground v.1.15,2013-06-23 18:45:00,
2013-06-23 14:50:00,88.5,72.3,29.97,West,274,2.0,2.0,59,0.00,,,0.01,Wunderground v.1.15,2013-06-23 18:50:00,
2013-06-23 15:00:00,88.4,72.2,29.97,NW,305,2.0,2.0,59,0.00,,,0.01,Wunderground v.1.15,2013-06-23 19:00:00,
2013-06-23 15:05:00,88.6,72.4,29.97,WSW,245,2.0,2.0,59,0.00,,,0.01,Wunderground v.1.15,2013-06-23 19:05:00,
2013-06-23 15:15:00,88.8,72.1,29.96,WNW,298,2.0,2.0,58,0.00,,,0.01,Wunderground v.1.15,2013-06-23 19:15:00,
2013-06-23 15:20:00,88.8,72.1,29.96,West,269,2.0,2.0,58,0.00,,,0.01,Wunderground v.1.15,2013-06-23 19:20:00,
2013-06-23 15:30:00,88.9,71.7,29.95,SW,220,2.0,4.0,57,0.00,,,0.01,Wunderground v.1.15,2013-06-23 19:30:00,
2013-06-23 15:35:00,88.7,71.5,29.95,SSW,211,2.0,4.0,57,0.00,,,0.01,Wunderground v.1.15,2013-06-23 19:35:00,
2013-06-23 15:45:00,88.9,71.7,29.95,SSW,213,3.0,3.0,57,0.00,,,0.01,Wunderground v.1.15,2013-06-23 19:45:00,
2013-06-23 15:55:00,89.5,71.2,29.95,West,281,2.0,3.0,55,0.00,,,0.01,Wunderground v.1.15,2013-06-23 19:55:00,
2013-06-23 16:05:00,89.4,71.1,29.94,West,275,3.0,5.0,55,0.00,,,0.01,Wunderground v.1.15,2013-06-23 20:05:00,
2013-06-23 16:15:00,89.6,70.2,29.94,WSW,258,3.0,3.0,53,0.00,,,0.01,Wunderground v.1.15,2013-06-23 20:15:00,
2013-06-23 16:20:00,89.6,71.3,29.94,SW,236,2.0,2.0,55,0.00,,,0.01,Wunderground v.1.15,2013-06-23 20:20:00,
2013-06-23 16:25:00,89.8,70.9,29.94,NNE,17,2.0,3.0,54,0.00,,,0.01,Wunderground v.1.15,2013-06-23 20:25:00,
2013-06-23 16:35:00,89.2,70.9,29.94,WSW,244,2.0,2.0,55,0.00,,,0.01,Wunderground v.1.15,2013-06-23 20:35:00,
2013-06-23 16:40:00,89.4,71.1,29.94,West,275,2.0,2.0,55,0.00,,,0.01,Wunderground v.1.15,2013-06-23 20:40:00,
2013-06-23 16:50:00,89.0,70.2,29.94,South,183,2.0,9.0,54,0.00,,,0.01,Wunderground v.1.15,2013-06-23 20:50:00,
2013-06-23 17:00:00,88.1,69.9,29.95,North,350,2.0,2.0,55,0.00,,,0.01,Wunderground v.1.15,2013-06-23 21:00:00,
2013-06-23 17:05:00,87.7,69.5,29.95,SW,227,2.0,2.0,55,0.00,,,0.01,Wunderground v.1.15,2013-06-23 21:05:00,
2013-06-23 17:15:00,87.9,69.7,29.95,West,266,2.0,3.0,55,0.00,,,0.01,Wunderground v.1.15,2013-06-23 21:15:00,
2013-06-23 17:20:00,87.7,69.0,29.95,SW,217,2.0,5.0,54,0.00,,,0.01,Wunderground v.1.15,2013-06-23 21:20:00,
2013-06-23 17:30:00,87.5,69.9,29.95,NNW,335,2.0,3.0,56,0.00,,,0.01,Wunderground v.1.15,2013-06-23 21:30:00,
2013-06-23 17:40:00,87.3,69.2,29.94,West,270,2.0,3.0,55,0.00,,,0.01,Wunderground v.1.15,2013-06-23 21:40:00,
2013-06-23 17:50:00,86.7,68.6,29.95,WNW,292,2.0,2.0,55,0.00,,,0.01,Wunderground v.1.15,2013-06-23 21:50:00,
2013-06-23 18:00:00,86.5,68.4,29.94,SW,227,2.0,2.0,55,0.00,,,0.01,Wunderground v.1.15,2013-06-23 22:00:00,
2013-06-23 18:05:00,86.2,68.7,29.94,SSW,192,2.0,2.0,56,0.00,,,0.01,Wunderground v.1.15,2013-06-23 22:05:00,
2013-06-23 18:15:00,86.2,69.2,29.94,SSW,212,2.0,2.0,57,0.00,,,0.01,Wunderground v.1.15,2013-06-23 22:15:00,
2013-06-23 18:20:00,85.8,68.8,29.95,WNW,282,2.0,3.0,57,0.00,,,0.01,Wunderground v.1.15,2013-06-23 22:20:00,
2013-06-23 18:30:00,85.3,68.3,29.95,WSW,249,2.0,2.0,57,0.00,,,0.01,Wunderground v.1.15,2013-06-23 22:30:00,
2013-06-23 18:35:00,85.3,68.8,29.95,SW,234,2.0,2.0,58,0.00,,,0.01,Wunderground v.1.15,2013-06-23 22:35:00,
2013-06-23 18:45:00,84.8,68.4,29.96,West,270,2.0,3.0,58,0.00,,,0.01,Wunderground v.1.15,2013-06-23 22:45:00,
2013-06-23 18:55:00,84.4,68.0,29.96,WNW,290,2.0,3.0,58,0.00,,,0.01,Wunderground v.1.15,2013-06-23 22:55:00,
2013-06-23 19:05:00,83.8,67.9,29.96,SSW,209,2.0,3.0,59,0.00,,,0.01,Wunderground v.1.15,2013-06-23 23:05:00,
2013-06-23 19:15:00,83.5,68.2,29.96,WSW,238,2.0,2.0,60,0.00,,,0.01,Wunderground v.1.15,2013-06-23 23:15:00,
2013-06-23 19:25:00,83.0,68.2,29.95,NNW,330,1.0,2.0,61,0.00,,,0.01,Wunderground v.1.15,2013-06-23 23:25:00,
2013-06-23 19:35:00,82.4,68.1,29.95,WNW,291,1.0,2.0,62,0.00,,,0.01,Wunderground v.1.15,2013-06-23 23:35:00,
2013-06-23 19:45:00,82.0,67.7,29.95,WSW,240,2.0,2.0,62,0.00,,,0.01,Wunderground v.1.15,2013-06-23 23:45:00,
2013-06-23 19:55:00,81.5,68.1,29.96,WSW,243,1.0,1.0,64,0.00,,,0.01,Wunderground v.1.15,2013-06-23 23:55:00,
2013-06-23 20:00:00,81.3,68.0,29.96,NW,309,1.0,1.0,64,0.00,,,0.01,Wunderground v.1.15,2013-06-24 00:00:00,
2013-06-23 20:10:00,80.9,68.0,29.96,SW,234,1.0,1.0,65,0.00,,,0.01,Wunderground v.1.15,2013-06-24 00:10:00,
2013-06-23 20:15:00,80.7,68.3,29.96,NW,305,1.0,2.0,66,0.00,,,0.01,Wunderground v.1.15,2013-06-24 00:15:00,
2013-06-23 20:25:00,80.3,68.3,29.97,WSW,253,1.0,1.0,67,0.00,,,0.01,Wunderground v.1.15,2013-06-24 00:25:00,
2013-06-23 20:35:00,79.9,68.4,29.97,NNW,336,1.0,1.0,68,0.00,,,0.01,Wunderground v.1.15,2013-06-24 00:35:00,
2013-06-23 20:40:00,79.7,68.6,29.97,SW,227,1.0,1.0,69,0.00,,,0.01,Wunderground v.1.15,2013-06-24 00:40:00,
2013-06-23 20:50:00,79.3,68.7,29.97,WNW,289,1.0,1.0,70,0.00,,,0.01,Wunderground v.1.15,2013-06-24 00:50:00,
2013-06-23 20:55:00,79.2,69.0,29.98,SSW,200,1.0,1.0,71,0.00,,,0.01,Wunderground v.1.15,2013-06-24 00:55:00,
2013-06-23 21:05:00,78.9,69.1,29.98,SSW,197,1.0,1.0,72,0.00,,,0.01,Wunderground v.1.15,2013-06-24 01:05:00,
2013-06-23 21:15:00,78.5,69.1,29.98,NE,47,1.0,1.0,73,0.00,,,0.01,Wunderground v.1.15,2013-06-24 01:15:00,
2013-06-23 21:20:00,78.4,69.0,29.99,West,271,1.0,1.0,73,0.00,,,0.01,Wunderground v.1.15,2013-06-24 01:20:00,
2013-06-23 21:30:00,78.2,68.8,29.99,SW,234,1.0,1.0,73,0.00,,,0.01,Wunderground v.1.15,2013-06-24 01:30:00,
2013-06-23 21:40:00,78.0,69.0,29.99,NW,304,1.0,1.0,74,0.00,,,0.01,Wunderground v.1.15,2013-06-24 01:40:00,
2013-06-23 21:50:00,77.7,68.7,29.98,WNW,283,1.0,2.0,74,0.00,,,0.01,Wunderground v.1.15,2013-06-24 01:50:00,
2013-06-23 22:00:00,77.5,68.9,29.99,SW,217,1.0,1.0,75,0.00,,,0.01,Wunderground v.1.15,2013-06-24 02:00:00,
2013-06-23 22:05:00,77.4,68.9,29.99,SSW,197,1.0,1.0,75,0.00,,,0.01,Wunderground v.1.15,2013-06-24 02:05:00,
2013-06-23 22:15:00,77.2,69.0,29.99,WSW,257,1.0,1.0,76,0.00,,,0.01,Wunderground v.1.15,2013-06-24 02:15:00,
2013-06-23 22:20:00,77.1,68.9,29.99,WNW,298,1.0,2.0,76,0.00,,,0.01,Wunderground v.1.15,2013-06-24 02:20:00,
2013-06-23 22:25:00,77.0,68.9,30.00,NNW,344,1.0,2.0,76,0.00,,,0.01,Wunderground v.1.15,2013-06-24 02:25:00,
2013-06-23 22:35:00,76.9,69.1,30.00,WNW,298,1.0,1.0,77,0.00,,,0.01,Wunderground v.1.15,2013-06-24 02:35:00,
2013-06-23 22:40:00,76.8,69.0,29.99,WNW,303,1.0,1.0,77,0.00,,,0.01,Wunderground v.1.15,2013-06-24 02:40:00,
2013-06-23 22:50:00,76.6,68.8,29.99,SW,225,1.0,1.0,77,0.00,,,0.01,Wunderground v.1.15,2013-06-24 02:50:00,
2013-06-23 22:55:00,76.5,69.1,29.99,West,279,1.0,2.0,78,0.00,,,0.01,Wunderground v.1.15,2013-06-24 02:55:00,
2013-06-23 23:05:00,76.4,69.0,29.98,NNW,341,1.0,2.0,78,0.00,,,0.01,Wunderground v.1.15,2013-06-24 03:05:00,
2013-06-23 23:10:00,76.3,68.9,29.98,WNW,292,1.0,2.0,78,0.00,,,0.01,Wunderground v.1.15,2013-06-24 03:10:00,
2013-06-23 23:20:00,76.1,68.7,29.98,WNW,298,1.0,1.0,78,0.00,,,0.01,Wunderground v.1.15,2013-06-24 03:20:00,
2013-06-23 23:25:00,76.0,68.6,29.98,NW,308,1.0,1.0,78,0.00,,,0.01,Wunderground v.1.15,2013-06-24 03:25:00,
2013-06-23 23:35:00,75.8,68.8,29.98,SSW,198,1.0,1.0,79,0.00,,,0.01,Wunderground v.1.15,2013-06-24 03:35:00,
2013-06-23 23:40:00,75.8,68.8,29.97,West,271,1.0,2.0,79,0.00,,,0.01,Wunderground v.1.15,2013-06-24 03:40:00,
2013-06-23 23:50:00,75.6,68.6,29.97,SW,229,1.0,1.0,79,0.00,,,0.01,Wunderground v.1.15,2013-06-24 03:50:00,
2013-06-23 23:55:00,75.6,68.6,29.97,WSW,254,1.0,3.0,79,0.00,,,0.01,Wunderground v.1.15,2013-06-24 03:55:00,